Time;durP1;ratioP1;P1;durP2;ratioP2;P2;SDS_P1;SDS_P2;PMS_P1;PMS_P2;Temp;Humidity;BMP_temperature;BMP_pressure;BME280_temperature;BME280_humidity;BME280_pressure;Samples;Min_cycle;Max_cycle;Signal;HPM_P1;HPM_P2
2022/04/23 00:00:12;;;;;;;0.10;0.10;;;10.50;1.00;12.80;88045.00;;;;4994577;28;20204;-70
2022/04/23 00:02:42;;;;;;;0.10;0.10;;;10.40;1.00;12.80;88045.00;;;;4993454;28;20208;-71
2022/04/23 00:05:11;;;;;;;0.10;0.10;;;10.40;1.00;12.80;88045.00;;;;4997037;28;20216;-70
2022/04/23 00:07:39;;;;;;;0.10;0.10;;;10.40;1.00;12.80;88045.00;;;;4993849;28;20640;-70
2022/04/23 00:10:09;;;;;;;0.10;0.10;;;10.40;1.00;12.80;88045.00;;;;4995969;28;20201;-71
2022/04/23 00:12:37;;;;;;;0.00;0.00;;;10.40;1.00;12.80;88045.00;;;;4995303;28;20200;-71
2022/04/23 00:15:07;;;;;;;0.10;0.10;;;10.50;1.00;12.80;88045.00;;;;4994661;28;20212;-71
2022/04/23 00:17:34;;;;;;;0.10;0.10;;;10.50;1.00;12.80;88045.00;;;;4994645;28;20201;-72
2022/04/23 00:20:03;;;;;;;0.10;0.10;;;10.50;1.00;12.80;88045.00;;;;4994055;28;20197;-72
2022/04/23 00:22:36;;;;;;;0.05;0.05;;;10.60;1.00;12.80;88045.00;;;;4992938;28;20661;-70
2022/04/23 00:25:05;;;;;;;0.10;0.10;;;10.60;1.00;12.80;88045.00;;;;4993443;28;20208;-71
2022/04/23 00:27:33;;;;;;;0.00;0.00;;;10.60;1.00;12.80;88045.00;;;;4995204;28;20706;-71
2022/04/23 00:30:01;;;;;;;0.10;0.10;;;10.60;1.00;12.80;88045.00;;;;4995643;28;20670;-71
2022/04/23 00:32:30;;;;;;;0.10;0.10;;;10.60;1.00;12.80;88045.00;;;;4996156;28;20673;-71
2022/04/23 00:34:59;;;;;;;0.10;0.10;;;10.60;1.00;12.80;88045.00;;;;4996816;28;20752;-72
2022/04/23 00:37:27;;;;;;;0.00;0.00;;;10.60;1.00;12.80;88045.00;;;;4996072;28;20607;-72
2022/04/23 00:39:56;;;;;;;0.10;0.10;;;10.60;1.00;12.80;88045.00;;;;4995956;28;20204;-71
2022/04/23 00:42:24;;;;;;;0.10;0.10;;;10.60;1.00;12.80;88045.00;;;;4998271;28;20654;-71
2022/04/23 00:44:52;;;;;;;0.10;0.10;;;10.60;1.00;12.80;88045.00;;;;4998022;28;20212;-71
2022/04/23 00:47:21;;;;;;;0.10;0.10;;;10.60;1.00;12.80;88045.00;;;;4997039;28;20222;-71
2022/04/23 00:49:50;;;;;;;0.00;0.00;;;10.60;1.00;12.80;88045.00;;;;4997789;28;20593;-71
2022/04/23 00:52:19;;;;;;;0.10;0.10;;;10.60;1.00;12.80;88045.00;;;;4996702;28;20670;-71
2022/04/23 00:54:47;;;;;;;0.03;0.03;;;10.60;1.00;12.80;88045.00;;;;4997666;28;20204;-71
2022/04/23 00:57:16;;;;;;;0.10;0.10;;;10.60;1.00;12.80;88045.00;;;;4998795;28;20568;-71
2022/04/23 00:59:46;;;;;;;0.10;0.10;;;10.50;1.00;12.80;88045.00;;;;4996147;28;20607;-71
2022/04/23 01:02:15;;;;;;;0.10;0.10;;;10.50;1.00;12.80;88045.00;;;;4995165;28;20199;-71
2022/04/23 01:04:43;;;;;;;0.10;0.10;;;10.50;1.00;12.80;88045.00;;;;4998845;28;20698;-71
2022/04/23 01:07:13;;;;;;;0.10;0.10;;;10.60;1.00;12.80;88045.00;;;;5001926;28;20204;-71
2022/04/23 01:09:44;;;;;;;0.10;0.10;;;10.60;1.00;12.80;88045.00;;;;5001770;28;20200;-71
2022/04/23 01:12:12;;;;;;;0.10;0.10;;;10.60;1.00;12.80;88045.00;;;;5003318;28;20196;-71
2022/04/23 01:15:00;;;;;;;0.10;0.10;;;10.60;1.00;12.80;88045.00;;;;5003127;28;20653;-71
2022/04/23 01:17:28;;;;;;;0.10;0.10;;;10.50;1.00;12.80;88045.00;;;;4996083;28;20208;-71
2022/04/23 01:19:56;;;;;;;0.10;0.10;;;10.60;1.00;12.80;88045.00;;;;4997425;28;20200;-71
2022/04/23 01:22:25;;;;;;;0.10;0.10;;;10.60;1.00;12.80;88045.00;;;;4996506;28;20205;-71
2022/04/23 01:24:55;;;;;;;0.08;0.08;;;10.60;1.00;12.80;88045.00;;;;4994861;28;20232;-70
2022/04/23 01:27:27;;;;;;;0.00;0.00;;;10.60;1.00;12.80;88045.00;;;;4996448;28;20208;-71
2022/04/23 01:29:57;;;;;;;0.00;0.00;;;10.60;1.00;12.80;88045.00;;;;4997031;28;20200;-72
2022/04/23 01:32:25;;;;;;;0.10;0.10;;;10.60;1.00;12.80;88045.00;;;;4996206;28;20200;-72
2022/04/23 01:34:53;;;;;;;0.10;0.10;;;10.60;1.00;12.80;88045.00;;;;4996889;28;20217;-72
2022/04/23 01:37:21;;;;;;;0.10;0.10;;;10.60;1.00;12.80;88045.00;;;;4995454;28;20613;-71
2022/04/23 01:39:51;;;;;;;0.05;0.05;;;10.60;1.00;12.80;88045.00;;;;4995261;28;20200;-71
2022/04/23 01:42:19;;;;;;;0.10;0.10;;;10.60;1.00;12.80;88045.00;;;;4995426;28;20583;-72
2022/04/23 01:44:49;;;;;;;0.00;0.00;;;10.60;1.00;12.80;88045.00;;;;4997061;28;20227;-72
2022/04/23 01:47:18;;;;;;;0.10;0.10;;;10.50;1.00;12.80;88045.00;;;;4994222;28;20212;-70
2022/04/23 01:49:46;;;;;;;0.10;0.10;;;10.60;1.00;12.80;88045.00;;;;4994766;28;20669;-70
2022/04/23 01:52:15;;;;;;;0.10;0.10;;;10.60;1.00;12.80;88045.00;;;;4995969;28;20200;-70
2022/04/23 01:54:43;;;;;;;0.10;0.10;;;10.60;1.00;12.80;88045.00;;;;4999631;28;20204;-69
2022/04/23 01:57:12;;;;;;;0.10;0.10;;;10.60;1.00;12.80;88045.00;;;;4995743;28;20208;-70
2022/04/23 01:59:40;;;;;;;0.10;0.10;;;10.60;1.00;12.80;88045.00;;;;4994414;28;20201;-70
2022/04/23 02:02:08;;;;;;;0.10;0.10;;;10.60;1.00;12.80;88045.00;;;;4993620;28;20211;-70
2022/04/23 02:04:36;;;;;;;0.00;0.00;;;10.50;1.00;12.80;88045.00;;;;4994071;28;20586;-70
2022/04/23 02:07:05;;;;;;;0.10;0.10;;;10.50;1.00;12.80;88045.00;;;;4994640;28;20200;-70
2022/04/23 02:09:34;;;;;;;0.10;0.10;;;10.50;1.00;12.80;88045.00;;;;4994245;28;20211;-69
2022/04/23 02:12:02;;;;;;;0.10;0.10;;;10.50;1.00;12.80;88045.00;;;;4994105;28;20196;-69
2022/04/23 02:14:32;;;;;;;0.00;0.00;;;10.40;1.00;12.80;88045.00;;;;4992614;28;20216;-69
2022/04/23 02:17:01;;;;;;;0.10;0.10;;;10.40;1.00;12.80;88045.00;;;;4983443;28;20736;-69
2022/04/23 02:19:29;;;;;;;0.10;0.10;;;10.30;1.00;12.80;88045.00;;;;4994441;28;20201;-69
2022/04/23 02:21:57;;;;;;;0.10;0.10;;;10.30;1.00;12.80;88045.00;;;;4996660;28;20196;-69
2022/04/23 02:24:24;;;;;;;0.10;0.10;;;10.30;1.00;12.80;88045.00;;;;4998738;28;20220;-70
2022/04/23 02:26:52;;;;;;;0.10;0.10;;;10.10;1.00;12.80;88045.00;;;;4998378;28;20248;-70
2022/04/23 02:29:20;;;;;;;0.10;0.10;;;10.00;1.00;12.80;88045.00;;;;4995655;28;20216;-70
2022/04/23 02:31:50;;;;;;;0.10;0.10;;;10.00;1.00;12.80;88045.00;;;;4997559;28;20192;-70
2022/04/23 02:34:21;;;;;;;0.10;0.10;;;9.90;1.00;12.80;88045.00;;;;4997998;28;20216;-70
2022/04/23 02:36:49;;;;;;;0.10;0.10;;;9.90;1.00;12.80;88045.00;;;;4995109;28;20215;-71
2022/04/23 02:39:17;;;;;;;0.10;0.10;;;9.90;1.00;12.80;88045.00;;;;4994951;28;20212;-70
2022/04/23 02:41:44;;;;;;;0.10;0.10;;;9.90;16.20;12.80;88045.00;;;;4995981;28;20705;-71
2022/04/23 02:44:13;;;;;;;0.10;0.10;;;9.90;18.10;12.80;88045.00;;;;4996096;28;20282;-71
2022/04/23 02:46:42;;;;;;;0.10;0.10;;;10.00;13.20;12.80;88045.00;;;;4996631;28;20243;-70
2022/04/23 02:49:11;;;;;;;0.10;0.10;;;10.10;1.00;12.80;88045.00;;;;4999799;28;20253;-71
2022/04/23 02:51:42;;;;;;;0.10;0.10;;;10.10;1.00;12.80;88045.00;;;;5002272;28;20275;-75
2022/04/23 02:54:10;;;;;;;0.10;0.10;;;10.10;1.00;12.80;88045.00;;;;4996816;28;20224;-73
2022/04/23 02:56:38;;;;;;;0.10;0.10;;;10.00;57.20;12.80;88045.00;;;;4988018;28;20255;-71
2022/04/23 02:59:06;;;;;;;0.10;0.10;;;10.00;99.90;12.80;88045.00;;;;5003682;28;20223;-71
2022/04/23 03:01:36;;;;;;;0.10;0.10;;;10.00;99.90;12.80;88045.00;;;;5005531;28;20205;-71
2022/04/23 03:04:05;;;;;;;0.10;0.10;;;10.00;99.90;12.80;88045.00;;;;5003339;28;20220;-71
2022/04/23 03:06:34;;;;;;;0.10;0.10;;;10.00;50.50;12.80;88045.00;;;;4981909;28;20201;-71
2022/04/23 03:09:03;;;;;;;0.10;0.10;;;10.10;13.30;12.80;88045.00;;;;4992946;28;20220;-71
2022/04/23 03:11:31;;;;;;;0.10;0.10;;;9.90;99.90;12.80;88045.00;;;;4996734;28;20207;-72
2022/04/23 03:14:00;;;;;;;0.10;0.10;;;9.80;99.90;12.80;88045.00;;;;4996752;28;20212;-71
2022/04/23 03:16:29;;;;;;;0.10;0.10;;;9.60;99.90;12.80;88045.00;;;;4996105;28;20196;-73
2022/04/23 03:18:57;;;;;;;0.00;0.00;;;9.60;99.90;12.80;88045.00;;;;4994226;28;20208;-71
2022/04/23 03:21:26;;;;;;;0.10;0.10;;;9.60;99.90;12.80;88045.00;;;;4996707;28;20207;-70
2022/04/23 03:23:55;;;;;;;0.10;0.10;;;9.60;99.90;12.80;88045.00;;;;4995801;28;20706;-70
2022/04/23 03:26:23;;;;;;;0.10;0.10;;;9.60;99.90;12.80;88045.00;;;;4993165;28;20226;-70
2022/04/23 03:28:51;;;;;;;0.10;0.10;;;9.70;99.90;12.80;88045.00;;;;4992490;28;20208;-70
2022/04/23 03:31:19;;;;;;;0.00;0.00;;;9.70;99.90;12.80;88045.00;;;;4993600;28;20211;-70
2022/04/23 03:33:47;;;;;;;0.10;0.10;;;9.60;99.90;12.80;88045.00;;;;4993716;28;20714;-71
2022/04/23 03:36:17;;;;;;;0.00;0.00;;;9.30;99.90;12.80;88045.00;;;;4993613;28;20192;-71
2022/04/23 03:38:45;;;;;;;0.10;0.10;;;9.10;99.90;12.80;88045.00;;;;4993813;28;20677;-70
2022/04/23 03:41:14;;;;;;;0.10;0.10;;;9.10;99.90;12.80;88045.00;;;;4994502;28;20195;-71
2022/04/23 03:43:42;;;;;;;0.10;0.10;;;9.20;99.90;12.80;88045.00;;;;4994690;28;20264;-70
2022/04/23 03:46:11;;;;;;;0.10;0.10;;;9.30;99.90;12.80;88045.00;;;;4993562;28;20210;-70
2022/04/23 03:48:40;;;;;;;0.10;0.10;;;9.40;99.90;12.80;88045.00;;;;4992470;28;20432;-70
2022/04/23 03:51:07;;;;;;;0.10;0.10;;;9.50;99.90;12.80;88045.00;;;;4993478;28;20192;-70
2022/04/23 03:53:36;;;;;;;0.00;0.00;;;9.50;99.90;12.80;88045.00;;;;4996141;28;20220;-70
2022/04/23 03:56:06;;;;;;;0.10;0.10;;;9.50;99.90;12.80;88045.00;;;;4995007;28;20220;-70
2022/04/23 03:58:35;;;;;;;0.10;0.10;;;9.40;99.90;12.80;88045.00;;;;4995028;28;20197;-70
2022/04/23 04:01:03;;;;;;;0.10;0.10;;;9.40;99.90;12.80;88045.00;;;;4998097;28;20196;-70
2022/04/23 04:03:31;;;;;;;0.10;0.10;;;9.40;99.90;12.80;88045.00;;;;5001173;28;20212;-70
2022/04/23 04:05:59;;;;;;;0.10;0.10;;;9.40;99.90;12.80;88045.00;;;;4999027;28;20204;-71
2022/04/23 04:08:27;;;;;;;0.10;0.10;;;9.40;99.90;12.80;88045.00;;;;4997303;28;20212;-71
2022/04/23 04:10:55;;;;;;;0.10;0.10;;;9.50;99.90;12.80;88045.00;;;;4997964;28;20189;-70
2022/04/23 04:13:24;;;;;;;0.10;0.10;;;9.50;99.90;12.80;88045.00;;;;4997525;28;20196;-70
2022/04/23 04:15:53;;;;;;;0.10;0.10;;;9.50;99.90;12.80;88045.00;;;;4996965;28;20196;-71
2022/04/23 04:18:23;;;;;;;0.10;0.10;;;9.50;99.90;12.80;88045.00;;;;4996784;28;20197;-70
2022/04/23 04:20:53;;;;;;;0.10;0.10;;;9.40;99.90;12.80;88045.00;;;;4997047;28;20200;-71
2022/04/23 04:23:23;;;;;;;0.10;0.10;;;9.30;99.90;12.80;88045.00;;;;4996337;28;20239;-71
2022/04/23 04:25:51;;;;;;;0.10;0.10;;;9.30;99.90;12.80;88045.00;;;;4995642;28;20279;-70
2022/04/23 04:28:19;;;;;;;0.10;0.10;;;9.30;99.90;12.80;88045.00;;;;4997150;28;20224;-70
2022/04/23 04:33:35;;;;;;;0.10;0.10;;;9.20;99.90;12.80;88045.00;;;;4998363;28;20212;-71
2022/04/23 04:36:04;;;;;;;0.10;0.10;;;9.20;99.90;12.80;88045.00;;;;4997104;28;20197;-70
2022/04/23 04:38:32;;;;;;;0.10;0.10;;;9.30;99.90;12.80;88045.00;;;;4996406;28;20617;-70
2022/04/23 04:41:00;;;;;;;0.10;0.10;;;9.40;99.90;12.80;88045.00;;;;4998282;28;20195;-70
2022/04/23 04:43:28;;;;;;;0.10;0.10;;;9.50;99.90;12.80;88045.00;;;;4998254;28;20599;-70
2022/04/23 04:45:56;;;;;;;0.10;0.10;;;9.60;99.90;12.80;88045.00;;;;4993476;28;20694;-71
2022/04/23 04:48:24;;;;;;;0.10;0.10;;;9.70;99.90;12.80;88045.00;;;;4985896;28;20643;-70
2022/04/23 04:50:54;;;;;;;0.10;0.10;;;9.70;99.90;12.80;88045.00;;;;4983323;28;20211;-73
2022/04/23 04:53:22;;;;;;;0.10;0.10;;;9.70;99.90;12.80;88045.00;;;;4994980;28;20641;-70
2022/04/23 04:55:49;;;;;;;0.10;0.10;;;9.80;99.90;12.80;88045.00;;;;4993825;28;20197;-70
2022/04/23 04:58:17;;;;;;;0.10;0.10;;;9.80;99.90;12.80;88045.00;;;;4995622;28;20228;-69
2022/04/23 05:00:46;;;;;;;0.10;0.10;;;9.90;99.90;12.80;88045.00;;;;4997581;28;20212;-71
2022/04/23 05:03:14;;;;;;;0.10;0.10;;;9.90;99.90;12.80;88045.00;;;;4996230;28;20200;-71
2022/04/23 05:05:44;;;;;;;0.10;0.10;;;9.90;99.90;12.80;88045.00;;;;4996090;28;20259;-71
2022/04/23 05:08:13;;;;;;;0.03;0.03;;;9.90;99.90;12.80;88045.00;;;;4996289;28;20230;-71
2022/04/23 05:10:41;;;;;;;0.10;0.10;;;9.90;99.90;12.80;88045.00;;;;4995609;28;20264;-71
2022/04/23 05:13:09;;;;;;;0.10;0.10;;;9.80;99.90;12.80;88045.00;;;;4994899;28;20196;-71
2022/04/23 05:15:39;;;;;;;0.10;0.10;;;9.80;99.90;12.80;88045.00;;;;4995727;28;20200;-70
2022/04/23 05:18:07;;;;;;;0.10;0.10;;;9.80;99.90;12.80;88045.00;;;;4993493;28;20193;-71
2022/04/23 05:20:36;;;;;;;0.00;0.00;;;9.80;99.90;12.80;88045.00;;;;4988832;28;20255;-71
2022/04/23 05:23:04;;;;;;;0.10;0.10;;;9.80;99.90;12.80;88045.00;;;;4994647;28;20192;-71
2022/04/23 05:25:34;;;;;;;0.10;0.10;;;9.90;99.90;12.80;88045.00;;;;4993281;28;20717;-71
2022/04/23 05:28:02;;;;;;;0.10;0.10;;;9.80;99.90;12.80;88045.00;;;;4994258;28;20204;-71
2022/04/23 05:30:30;;;;;;;0.10;0.10;;;9.80;99.90;12.80;88045.00;;;;4995112;28;20220;-71
2022/04/23 05:32:58;;;;;;;0.10;0.10;;;9.90;99.90;12.80;88045.00;;;;4997214;28;20196;-70
2022/04/23 05:35:25;;;;;;;0.10;0.10;;;9.80;99.90;12.80;88045.00;;;;4998180;28;20220;-71
2022/04/23 05:37:53;;;;;;;0.10;0.10;;;9.90;99.90;12.80;88045.00;;;;4999028;28;20201;-70
2022/04/23 05:40:21;;;;;;;0.10;0.10;;;10.00;99.90;12.80;88045.00;;;;4998389;28;20233;-70
2022/04/23 05:42:55;;;;;;;0.10;0.10;;;10.00;99.90;12.80;88045.00;;;;4999378;28;20200;-71
2022/04/23 05:45:23;;;;;;;0.10;0.10;;;10.00;99.90;12.80;88045.00;;;;4997842;28;20222;-70
2022/04/23 05:47:51;;;;;;;0.10;0.10;;;10.00;99.90;12.80;88045.00;;;;4999246;28;20192;-70
2022/04/23 05:50:23;;;;;;;0.10;0.10;;;10.10;99.90;12.80;88045.00;;;;4998771;28;20751;-71
2022/04/23 05:52:52;;;;;;;0.10;0.10;;;10.10;99.90;12.80;88045.00;;;;4996502;28;20608;-70
2022/04/23 05:55:20;;;;;;;0.10;0.10;;;10.10;99.90;12.80;88045.00;;;;4985507;28;20713;-70
2022/04/23 05:57:48;;;;;;;0.10;0.10;;;10.10;99.90;12.80;88045.00;;;;4994190;28;20192;-72
2022/04/23 06:00:19;;;;;;;0.00;0.00;;;10.10;99.90;12.80;88045.00;;;;4995085;28;20269;-70
2022/04/23 06:02:47;;;;;;;0.10;0.10;;;10.10;99.90;12.80;88045.00;;;;4995442;28;20197;-70
2022/04/23 06:05:16;;;;;;;0.10;0.10;;;10.10;99.90;12.80;88045.00;;;;4994953;28;20212;-70
2022/04/23 06:07:44;;;;;;;0.10;0.10;;;10.20;99.90;12.80;88045.00;;;;4993661;28;20192;-72
2022/04/23 06:10:12;;;;;;;0.10;0.10;;;10.20;99.90;12.80;88045.00;;;;4992515;28;20246;-71
2022/04/23 06:12:40;;;;;;;0.10;0.10;;;10.20;99.90;12.80;88045.00;;;;4993374;28;20568;-71
2022/04/23 06:15:09;;;;;;;0.10;0.10;;;10.30;99.90;12.80;88045.00;;;;4993627;28;20734;-70
2022/04/23 06:17:38;;;;;;;0.10;0.10;;;10.40;99.90;12.80;88045.00;;;;4991728;28;20204;-70
2022/04/23 06:20:07;;;;;;;0.10;0.10;;;10.50;99.90;12.80;88045.00;;;;4993953;28;20204;-70
2022/04/23 06:22:35;;;;;;;0.10;0.10;;;10.50;99.90;12.80;88045.00;;;;4992446;28;20197;-71
2022/04/23 06:25:05;;;;;;;0.10;0.10;;;10.60;99.90;12.80;88045.00;;;;4979822;28;20702;-69
2022/04/23 06:27:33;;;;;;;0.10;0.10;;;10.70;99.90;12.80;88045.00;;;;4992377;28;20579;-70
2022/04/23 06:30:02;;;;;;;0.10;0.10;;;10.70;99.90;12.80;88045.00;;;;4993504;28;20713;-69
2022/04/23 06:32:30;;;;;;;0.00;0.00;;;10.80;99.90;12.80;88045.00;;;;4993357;28;20204;-70
2022/04/23 06:34:59;;;;;;;0.10;0.10;;;10.80;99.90;12.80;88045.00;;;;4993455;28;20212;-70
2022/04/23 06:37:27;;;;;;;0.00;0.00;;;10.70;99.90;12.80;88045.00;;;;4992980;28;20200;-71
2022/04/23 06:39:55;;;;;;;0.10;0.10;;;10.90;99.90;12.80;88045.00;;;;4993301;28;20204;-71
2022/04/23 06:42:24;;;;;;;0.10;0.10;;;11.00;99.90;12.80;88045.00;;;;4985719;28;20651;-72
2022/04/23 06:44:54;;;;;;;0.10;0.10;;;11.10;99.90;12.80;88045.00;;;;5002224;28;20216;-71
2022/04/23 06:47:22;;;;;;;0.10;0.10;;;11.00;99.90;12.80;88045.00;;;;4976292;28;20205;-71
2022/04/23 06:49:50;;;;;;;0.10;0.10;;;11.10;99.90;12.80;88045.00;;;;4992526;28;20760;-71
2022/04/23 06:52:19;;;;;;;0.10;0.10;;;11.20;99.90;12.80;88045.00;;;;4992841;28;20607;-72
2022/04/23 06:54:47;;;;;;;0.10;0.10;;;11.20;99.90;12.80;88045.00;;;;4993072;28;20208;-72
2022/04/23 06:57:15;;;;;;;0.10;0.10;;;11.20;99.90;12.80;88045.00;;;;4993017;28;20662;-72
2022/04/23 06:59:43;;;;;;;0.10;0.10;;;11.30;99.90;12.80;88045.00;;;;4992781;28;20748;-72
2022/04/23 07:02:11;;;;;;;0.10;0.10;;;11.20;99.90;12.80;88045.00;;;;4993638;28;20569;-72
2022/04/23 07:04:39;;;;;;;0.00;0.00;;;11.20;99.90;12.80;88045.00;;;;4995402;28;20258;-71
2022/04/23 07:07:08;;;;;;;0.10;0.10;;;11.20;99.90;12.80;88045.00;;;;4995317;28;20196;-71
2022/04/23 07:09:37;;;;;;;0.10;0.10;;;11.00;99.90;12.80;88045.00;;;;4994311;28;20251;-71
2022/04/23 07:12:07;;;;;;;0.05;0.05;;;11.10;99.90;12.80;88045.00;;;;4995989;28;20214;-73
2022/04/23 07:14:35;;;;;;;0.10;0.10;;;11.30;99.90;12.80;88045.00;;;;4972405;28;20224;-72
2022/04/23 07:17:08;;;;;;;0.10;0.10;;;11.40;99.90;12.80;88045.00;;;;4984083;28;20208;-72
2022/04/23 07:19:40;;;;;;;0.10;0.10;;;11.50;99.90;12.80;88045.00;;;;4988796;28;20200;-72
2022/04/23 07:22:09;;;;;;;0.10;0.10;;;11.60;99.90;12.80;88045.00;;;;4981712;28;20830;-71
2022/04/23 07:24:38;;;;;;;0.10;0.10;;;11.70;99.90;12.80;88045.00;;;;4979300;28;20225;-71
2022/04/23 07:27:07;;;;;;;0.10;0.10;;;11.90;99.90;12.80;88045.00;;;;4976290;28;20299;-72
2022/04/23 07:29:35;;;;;;;0.10;0.10;;;11.90;99.90;12.80;88045.00;;;;4977328;28;20193;-71
2022/04/23 07:32:05;;;;;;;0.10;0.10;;;11.80;99.90;12.80;88045.00;;;;4991650;28;20577;-72
2022/04/23 07:37:33;;;;;;;0.00;0.00;;;11.60;99.90;12.80;88045.00;;;;4983743;28;20216;-71
2022/04/23 07:40:10;;;;;;;0.10;0.10;;;11.50;99.90;12.80;88045.00;;;;4992039;28;20263;-71
2022/04/23 07:42:39;;;;;;;0.10;0.10;;;11.40;99.90;12.80;88045.00;;;;4991739;28;20678;-71
2022/04/23 07:45:09;;;;;;;0.10;0.10;;;11.40;99.90;12.80;88045.00;;;;4992431;28;20678;-71
2022/04/23 07:47:37;;;;;;;0.10;0.10;;;11.30;99.90;12.80;88045.00;;;;4991950;28;20208;-71
2022/04/23 07:50:06;;;;;;;0.10;0.10;;;11.40;99.90;12.80;88045.00;;;;4991433;28;20216;-72
2022/04/23 07:52:35;;;;;;;0.10;0.10;;;11.60;99.90;12.80;88045.00;;;;4990994;28;20204;-71
2022/04/23 07:55:06;;;;;;;0.10;0.10;;;11.50;99.90;12.80;88045.00;;;;4992126;28;20252;-71
2022/04/23 07:57:35;;;;;;;0.03;0.03;;;11.50;99.90;12.80;88045.00;;;;4991980;28;20204;-70
2022/04/23 08:00:05;;;;;;;0.10;0.10;;;11.70;99.90;12.80;88045.00;;;;4987372;28;20609;-70
2022/04/23 08:02:38;;;;;;;0.10;0.10;;;11.70;99.90;12.80;88045.00;;;;4986000;28;20206;-71
2022/04/23 08:05:09;;;;;;;0.08;0.08;;;11.90;99.90;12.80;88045.00;;;;4989689;28;20236;-71
2022/04/23 08:07:39;;;;;;;0.10;0.10;;;11.90;99.90;12.80;88045.00;;;;4991149;28;20274;-70
2022/04/23 08:10:10;;;;;;;0.10;0.10;;;11.90;99.90;12.80;88045.00;;;;4987583;28;20232;-71
2022/04/23 08:12:38;;;;;;;0.00;0.00;;;12.00;99.90;12.80;88045.00;;;;4977866;28;20233;-71
2022/04/23 08:15:08;;;;;;;0.10;0.10;;;12.10;99.90;12.80;88045.00;;;;4975713;28;20216;-70
2022/04/23 08:17:36;;;;;;;0.10;0.10;;;12.20;99.90;12.80;88045.00;;;;4986273;28;20271;-71
2022/04/23 08:20:05;;;;;;;0.10;0.10;;;12.30;99.90;12.80;88045.00;;;;4992855;28;20250;-70
2022/04/23 08:22:33;;;;;;;0.00;0.00;;;12.30;99.90;12.80;88045.00;;;;4989636;28;20212;-71
2022/04/23 08:25:02;;;;;;;0.10;0.10;;;12.40;99.90;12.80;88045.00;;;;4989386;28;20252;-71
2022/04/23 08:27:46;;;;;;;0.10;0.10;;;12.50;99.90;12.80;88045.00;;;;4992672;28;20203;-70
2022/04/23 08:32:59;;;;;;;0.10;0.10;;;12.40;99.90;12.80;88045.00;;;;4974362;28;20201;-71
2022/04/23 08:35:27;;;;;;;0.10;0.10;;;12.60;99.90;12.80;88045.00;;;;4979879;28;20225;-70
2022/04/23 08:37:55;;;;;;;0.10;0.10;;;12.70;99.90;12.80;88045.00;;;;4990041;28;20205;-70
2022/04/23 08:40:24;;;;;;;0.00;0.00;;;12.90;99.90;12.80;88045.00;;;;4980999;28;20224;-70
2022/04/23 08:42:53;;;;;;;0.10;0.10;;;13.00;99.90;12.80;88045.00;;;;4974011;28;20201;-71
2022/04/23 08:45:21;;;;;;;0.10;0.10;;;13.10;99.90;12.80;88045.00;;;;4973923;28;20232;-70
2022/04/23 08:47:51;;;;;;;0.10;0.10;;;13.40;99.90;12.80;88045.00;;;;4975222;28;20205;-71
2022/04/23 08:50:22;;;;;;;0.10;0.10;;;13.50;99.90;12.80;88045.00;;;;4977726;28;20663;-71
2022/04/23 08:52:54;;;;;;;0.10;0.10;;;13.60;99.90;12.80;88045.00;;;;4976720;28;20232;-70
2022/04/23 08:55:22;;;;;;;0.10;0.10;;;13.70;99.90;12.80;88045.00;;;;4981072;28;20223;-69
2022/04/23 08:57:54;;;;;;;0.10;0.10;;;13.80;99.90;12.80;88045.00;;;;4996466;28;20193;-70
2022/04/23 09:00:23;;;;;;;0.00;0.00;;;13.80;99.90;12.80;88045.00;;;;4996810;28;20208;-70
2022/04/23 09:02:50;;;;;;;0.10;0.10;;;13.60;99.90;12.80;88045.00;;;;4996217;28;20244;-70
2022/04/23 09:05:19;;;;;;;0.00;0.00;;;13.60;99.90;12.80;88045.00;;;;4996521;28;20210;-70
2022/04/23 09:07:56;;;;;;;0.08;0.08;;;13.70;99.90;12.80;88045.00;;;;4989051;28;20621;-70
2022/04/23 09:10:44;;;;;;;0.10;0.10;;;13.80;99.90;12.80;88045.00;;;;4980020;28;20212;-70
2022/04/23 09:13:26;;;;;;;0.00;0.00;;;14.10;99.90;12.80;88045.00;;;;4991780;28;20204;-70
2022/04/23 09:24:45;;;;;;;0.00;0.00;;;14.80;99.90;12.80;88045.00;;;;4977064;28;20247;-70
2022/04/23 09:27:13;;;;;;;0.00;0.00;;;14.90;99.90;12.80;88045.00;;;;4995893;28;20280;-70
2022/04/23 09:29:59;;;;;;;0.10;0.10;;;15.20;99.90;12.80;88045.00;;;;4995574;28;20247;-70
2022/04/23 09:32:27;;;;;;;0.00;0.00;;;15.20;99.90;12.80;88045.00;;;;4983532;28;20594;-70
2022/04/23 09:35:06;;;;;;;0.00;0.00;;;15.20;99.90;12.80;88045.00;;;;4975259;28;20761;-70
2022/04/23 09:40:21;;;;;;;0.00;0.00;;;15.00;99.90;12.80;88045.00;;;;4975478;28;20208;-70
2022/04/23 09:42:57;;;;;;;0.10;0.10;;;15.00;99.90;12.80;88045.00;;;;4975975;28;20205;-70
2022/04/23 09:45:29;;;;;;;0.10;0.10;;;14.90;99.90;12.80;88045.00;;;;4975556;28;20275;-70
2022/04/23 09:48:14;;;;;;;0.00;0.00;;;14.80;99.90;12.80;88045.00;;;;4987913;28;20199;-70
2022/04/23 09:50:44;;;;;;;0.00;0.00;;;14.80;99.90;12.80;88045.00;;;;4987819;28;20670;-70
2022/04/23 09:53:14;;;;;;;0.00;0.00;;;14.70;99.90;12.80;88045.00;;;;4987051;28;20220;-70
2022/04/23 09:55:43;;;;;;;0.10;0.10;;;14.70;99.90;12.80;88045.00;;;;4994800;28;20275;-71
2022/04/23 09:58:13;;;;;;;0.10;0.10;;;14.80;99.90;12.80;88045.00;;;;4995177;28;20271;-70
2022/04/23 10:00:44;;;;;;;0.00;0.00;;;14.90;99.90;12.80;88045.00;;;;4997324;28;20292;-71
2022/04/23 10:03:14;;;;;;;0.10;0.10;;;14.90;99.90;12.80;88045.00;;;;5000969;28;20193;-70
2022/04/23 10:05:46;;;;;;;0.00;0.00;;;15.00;99.90;12.80;88045.00;;;;4997916;28;20219;-71
2022/04/23 10:08:16;;;;;;;0.00;0.00;;;15.10;99.90;12.80;88045.00;;;;4995620;28;20200;-70
2022/04/23 10:10:53;;;;;;;0.00;0.00;;;15.30;99.90;12.80;88045.00;;;;4995627;28;20316;-70
2022/04/23 10:13:25;;;;;;;0.00;0.00;;;15.40;99.90;12.80;88045.00;;;;4993751;28;20228;-71
2022/04/23 10:15:54;;;;;;;0.10;0.10;;;15.60;99.90;12.80;88045.00;;;;4996934;28;20220;-71
2022/04/23 10:18:24;;;;;;;0.00;0.00;;;15.80;99.90;12.80;88045.00;;;;4997071;28;20673;-70
2022/04/23 10:20:55;;;;;;;0.10;0.10;;;16.00;99.90;12.80;88045.00;;;;4996619;28;20251;-70
2022/04/23 10:23:44;;;;;;;0.05;0.05;;;16.20;99.90;12.80;88045.00;;;;4989308;28;20650;-70
2022/04/23 10:26:38;;;;;;;0.00;0.00;;;16.40;99.90;12.80;88045.00;;;;4986923;28;20617;-71
2022/04/23 10:29:10;;;;;;;0.00;0.00;;;16.50;99.90;12.80;88045.00;;;;4991035;28;20621;-71
2022/04/23 10:31:41;;;;;;;0.00;0.00;;;16.60;99.90;12.80;88045.00;;;;4982776;28;20227;-71
2022/04/23 10:34:32;;;;;;;0.00;0.00;;;16.70;99.90;12.80;88045.00;;;;4989197;28;20227;-71
2022/04/23 10:37:17;;;;;;;0.00;0.00;;;16.90;99.90;12.80;88045.00;;;;4976636;28;20259;-71
2022/04/23 10:40:07;;;;;;;0.00;0.00;;;17.00;99.90;12.80;88045.00;;;;4990691;28;20231;-71
2022/04/23 10:42:35;;;;;;;0.08;0.08;;;16.90;99.90;12.80;88045.00;;;;4992674;28;21016;-72
2022/04/23 10:45:06;;;;;;;0.00;0.00;;;17.10;99.90;12.80;88045.00;;;;4984216;28;20235;-71
2022/04/23 10:47:39;;;;;;;0.00;0.00;;;17.20;99.90;12.80;88045.00;;;;4994103;28;20201;-71
2022/04/23 10:50:31;;;;;;;0.00;0.00;;;17.50;99.90;12.80;88045.00;;;;4977716;28;20259;-71
2022/04/23 10:53:03;;;;;;;0.00;0.00;;;17.50;99.90;12.80;88045.00;;;;4974895;28;20232;-71
2022/04/23 10:55:32;;;;;;;0.00;0.00;;;17.40;99.90;12.80;88045.00;;;;4975053;28;20216;-71
2022/04/23 10:58:22;;;;;;;0.00;0.00;;;17.60;99.90;12.80;88045.00;;;;4979000;28;20256;-72
2022/04/23 11:00:50;;;;;;;0.00;0.00;;;17.60;99.90;12.80;88045.00;;;;4991257;28;20215;-71
2022/04/23 11:03:28;;;;;;;0.00;0.00;;;17.50;99.90;12.80;88045.00;;;;4992676;28;20204;-71
2022/04/23 11:14:45;;;;;;;0.00;0.00;;;17.90;99.10;12.80;88045.00;;;;4983438;28;20595;-71
2022/04/23 11:17:13;;;;;;;0.00;0.00;;;18.10;98.90;12.80;88045.00;;;;4975469;28;20255;-70
2022/04/23 11:19:42;;;;;;;0.00;0.00;;;18.20;98.40;12.80;88045.00;;;;4974850;28;20193;-70
2022/04/23 11:22:12;;;;;;;0.00;0.00;;;18.30;97.60;12.80;88045.00;;;;4975752;28;20197;-70
2022/04/23 11:24:40;;;;;;;0.00;0.00;;;18.30;97.40;12.80;88045.00;;;;4975529;28;20224;-70
2022/04/23 11:27:10;;;;;;;0.00;0.00;;;18.40;97.10;12.80;88045.00;;;;4974549;28;20193;-70
2022/04/23 11:29:39;;;;;;;0.00;0.00;;;18.20;97.60;12.80;88045.00;;;;4974142;28;20239;-70
2022/04/23 11:32:09;;;;;;;0.00;0.00;;;18.20;97.40;12.80;88045.00;;;;4984864;28;20200;-70
2022/04/23 11:34:39;;;;;;;0.00;0.00;;;18.20;97.30;12.80;88045.00;;;;4993357;28;20219;-69
2022/04/23 11:37:11;;;;;;;0.00;0.00;;;18.30;97.40;12.80;88045.00;;;;4994074;28;20248;-70